sensor_id;sensor_type;location;lat;lon;timestamp;P1;P2;P0
77481;PMS5003;66582;43.004;-75.010;2023-02-25T00:01:14;0;0;
77481;PMS5003;66582;43.004;-75.010;2023-02-25T00:03:40;1;0;
77481;PMS5003;66582;43.004;-75.010;2023-02-25T00:06:05;1;1;
77481;PMS5003;66582;43.004;-75.010;2023-02-25T00:08:30;0;0;
77481;PMS5003;66582;43.004;-75.010;2023-02-25T00:10:56;0;0;
77481;PMS5003;66582;43.004;-75.010;2023-02-25T00:13:20;0;0;
77481;PMS5003;66582;43.004;-75.010;2023-02-25T00:15:46;0;0;
77481;PMS5003;66582;43.004;-75.010;2023-02-25T00:18:11;0;0;
77481;PMS5003;66582;43.004;-75.010;2023-02-25T00:20:38;1;1;
77481;PMS5003;66582;43.004;-75.010;2023-02-25T00:23:01;0;0;
77481;PMS5003;66582;43.004;-75.010;2023-02-25T00:25:26;1;1;
77481;PMS5003;66582;43.004;-75.010;2023-02-25T00:27:52;0;0;
77481;PMS5003;66582;43.004;-75.010;2023-02-25T00:30:21;1;1;
77481;PMS5003;66582;43.004;-75.010;2023-02-25T00:32:42;0;0;
77481;PMS5003;66582;43.004;-75.010;2023-02-25T00:35:07;1;1;
77481;PMS5003;66582;43.004;-75.010;2023-02-25T00:37:33;1;0;
77481;PMS5003;66582;43.004;-75.010;2023-02-25T00:39:57;0;0;
77481;PMS5003;66582;43.004;-75.010;2023-02-25T00:42:23;1;0;
77481;PMS5003;66582;43.004;-75.010;2023-02-25T00:44:49;0;0;
77481;PMS5003;66582;43.004;-75.010;2023-02-25T00:47:14;1;1;
77481;PMS5003;66582;43.004;-75.010;2023-02-25T00:49:39;1;0;
77481;PMS5003;66582;43.004;-75.010;2023-02-25T00:52:04;1;0;
77481;PMS5003;66582;43.004;-75.010;2023-02-25T00:54:29;1;1;
77481;PMS5003;66582;43.004;-75.010;2023-02-25T00:56:54;1;0;
77481;PMS5003;66582;43.004;-75.010;2023-02-25T00:59:19;0;0;
77481;PMS5003;66582;43.004;-75.010;2023-02-25T01:01:44;0;0;
77481;PMS5003;66582;43.004;-75.010;2023-02-25T01:04:10;0;0;
77481;PMS5003;66582;43.004;-75.010;2023-02-25T01:06:35;1;1;
77481;PMS5003;66582;43.004;-75.010;2023-02-25T01:09:00;1;1;
77481;PMS5003;66582;43.004;-75.010;2023-02-25T01:11:26;0;0;
77481;PMS5003;66582;43.004;-75.010;2023-02-25T01:13:50;0;0;
77481;PMS5003;66582;43.004;-75.010;2023-02-25T01:16:17;1;0;
77481;PMS5003;66582;43.004;-75.010;2023-02-25T01:18:42;1;1;
77481;PMS5003;66582;43.004;-75.010;2023-02-25T01:21:07;0;0;
77481;PMS5003;66582;43.004;-75.010;2023-02-25T01:23:31;1;1;
77481;PMS5003;66582;43.004;-75.010;2023-02-25T01:25:56;1;0;
77481;PMS5003;66582;43.004;-75.010;2023-02-25T01:28:22;1;1;
77481;PMS5003;66582;43.004;-75.010;2023-02-25T01:30:47;0;0;
77481;PMS5003;66582;43.004;-75.010;2023-02-25T01:33:12;1;1;
77481;PMS5003;66582;43.004;-75.010;2023-02-25T01:35:38;0;0;
77481;PMS5003;66582;43.004;-75.010;2023-02-25T01:38:02;0;0;
77481;PMS5003;66582;43.004;-75.010;2023-02-25T01:40:28;2;1;
77481;PMS5003;66582;43.004;-75.010;2023-02-25T01:42:53;1;1;
77481;PMS5003;66582;43.004;-75.010;2023-02-25T01:45:26;0;0;
77481;PMS5003;66582;43.004;-75.010;2023-02-25T01:47:44;0;0;
77481;PMS5003;66582;43.004;-75.010;2023-02-25T01:50:09;1;1;
77481;PMS5003;66582;43.004;-75.010;2023-02-25T01:52:34;1;1;
77481;PMS5003;66582;43.004;-75.010;2023-02-25T01:54:59;0;0;
77481;PMS5003;66582;43.004;-75.010;2023-02-25T01:57:24;1;1;
77481;PMS5003;66582;43.004;-75.010;2023-02-25T01:59:50;0;0;
77481;PMS5003;66582;43.004;-75.010;2023-02-25T02:02:16;1;1;
77481;PMS5003;66582;43.004;-75.010;2023-02-25T02:04:40;0;0;
77481;PMS5003;66582;43.004;-75.010;2023-02-25T02:07:05;0;0;
77481;PMS5003;66582;43.004;-75.010;2023-02-25T02:09:30;1;1;
77481;PMS5003;66582;43.004;-75.010;2023-02-25T02:11:55;0;0;
77481;PMS5003;66582;43.004;-75.010;2023-02-25T02:14:21;2;0;
77481;PMS5003;66582;43.004;-75.010;2023-02-25T02:16:50;1;1;
77481;PMS5003;66582;43.004;-75.010;2023-02-25T02:19:15;0;0;
77481;PMS5003;66582;43.004;-75.010;2023-02-25T02:21:43;1;1;
77481;PMS5003;66582;43.004;-75.010;2023-02-25T02:24:07;1;1;
77481;PMS5003;66582;43.004;-75.010;2023-02-25T02:28:57;1;1;
77481;PMS5003;66582;43.004;-75.010;2023-02-25T02:31:19;0;0;
77481;PMS5003;66582;43.004;-75.010;2023-02-25T02:33:43;1;1;
77481;PMS5003;66582;43.004;-75.010;2023-02-25T02:36:09;0;0;
77481;PMS5003;66582;43.004;-75.010;2023-02-25T02:38:34;0;0;
77481;PMS5003;66582;43.004;-75.010;2023-02-25T02:41:00;1;1;
77481;PMS5003;66582;43.004;-75.010;2023-02-25T02:43:27;1;0;
77481;PMS5003;66582;43.004;-75.010;2023-02-25T02:45:49;1;0;
77481;PMS5003;66582;43.004;-75.010;2023-02-25T02:48:15;0;0;
77481;PMS5003;66582;43.004;-75.010;2023-02-25T02:50:39;0;0;
77481;PMS5003;66582;43.004;-75.010;2023-02-25T02:53:05;0;0;
77481;PMS5003;66582;43.004;-75.010;2023-02-25T02:55:31;0;0;
77481;PMS5003;66582;43.004;-75.010;2023-02-25T02:57:56;0;0;
77481;PMS5003;66582;43.004;-75.010;2023-02-25T03:00:21;0;0;
77481;PMS5003;66582;43.004;-75.010;2023-02-25T03:02:45;0;0;
77481;PMS5003;66582;43.004;-75.010;2023-02-25T03:05:11;0;0;
77481;PMS5003;66582;43.004;-75.010;2023-02-25T03:07:39;0;0;
77481;PMS5003;66582;43.004;-75.010;2023-02-25T03:10:01;0;0;
77481;PMS5003;66582;43.004;-75.010;2023-02-25T03:12:26;1;0;
77481;PMS5003;66582;43.004;-75.010;2023-02-25T03:14:51;0;0;
77481;PMS5003;66582;43.004;-75.010;2023-02-25T03:17:16;0;0;
77481;PMS5003;66582;43.004;-75.010;2023-02-25T03:19:42;0;0;
77481;PMS5003;66582;43.004;-75.010;2023-02-25T03:22:07;0;0;
77481;PMS5003;66582;43.004;-75.010;2023-02-25T03:24:33;0;0;
77481;PMS5003;66582;43.004;-75.010;2023-02-25T03:26:57;0;0;
77481;PMS5003;66582;43.004;-75.010;2023-02-25T03:29:22;1;0;
77481;PMS5003;66582;43.004;-75.010;2023-02-25T03:31:48;0;0;
77481;PMS5003;66582;43.004;-75.010;2023-02-25T03:34:13;0;0;
77481;PMS5003;66582;43.004;-75.010;2023-02-25T03:36:39;1;0;
77481;PMS5003;66582;43.004;-75.010;2023-02-25T03:39:04;1;0;
77481;PMS5003;66582;43.004;-75.010;2023-02-25T03:41:29;0;0;
77481;PMS5003;66582;43.004;-75.010;2023-02-25T03:43:54;0;0;
77481;PMS5003;66582;43.004;-75.010;2023-02-25T03:46:19;0;0;
77481;PMS5003;66582;43.004;-75.010;2023-02-25T03:48:44;1;1;
77481;PMS5003;66582;43.004;-75.010;2023-02-25T03:51:09;0;0;
77481;PMS5003;66582;43.004;-75.010;2023-02-25T03:53:34;1;1;
77481;PMS5003;66582;43.004;-75.010;2023-02-25T03:56:00;0;0;
77481;PMS5003;66582;43.004;-75.010;2023-02-25T03:58:24;0;0;
77481;PMS5003;66582;43.004;-75.010;2023-02-25T04:00:51;0;0;
77481;PMS5003;66582;43.004;-75.010;2023-02-25T04:03:15;0;0;
77481;PMS5003;66582;43.004;-75.010;2023-02-25T04:05:40;0;0;
77481;PMS5003;66582;43.004;-75.010;2023-02-25T04:08:06;0;0;
77481;PMS5003;66582;43.004;-75.010;2023-02-25T04:10:30;0;0;
77481;PMS5003;66582;43.004;-75.010;2023-02-25T04:12:56;2;0;
77481;PMS5003;66582;43.004;-75.010;2023-02-25T04:15:21;0;0;
77481;PMS5003;66582;43.004;-75.010;2023-02-25T04:17:47;2;1;
77481;PMS5003;66582;43.004;-75.010;2023-02-25T04:20:12;0;0;
77481;PMS5003;66582;43.004;-75.010;2023-02-25T04:22:37;1;1;
77481;PMS5003;66582;43.004;-75.010;2023-02-25T04:25:02;1;0;
77481;PMS5003;66582;43.004;-75.010;2023-02-25T04:27:27;0;0;
77481;PMS5003;66582;43.004;-75.010;2023-02-25T04:29:52;0;0;
77481;PMS5003;66582;43.004;-75.010;2023-02-25T04:32:17;1;0;
77481;PMS5003;66582;43.004;-75.010;2023-02-25T04:34:43;0;0;
77481;PMS5003;66582;43.004;-75.010;2023-02-25T04:37:08;1;1;
77481;PMS5003;66582;43.004;-75.010;2023-02-25T04:39:33;1;0;
77481;PMS5003;66582;43.004;-75.010;2023-02-25T04:41:58;0;0;
77481;PMS5003;66582;43.004;-75.010;2023-02-25T04:44:23;0;0;
77481;PMS5003;66582;43.004;-75.010;2023-02-25T04:46:49;0;0;
77481;PMS5003;66582;43.004;-75.010;2023-02-25T04:49:14;1;0;
77481;PMS5003;66582;43.004;-75.010;2023-02-25T04:51:39;0;0;
77481;PMS5003;66582;43.004;-75.010;2023-02-25T04:54:04;0;0;
77481;PMS5003;66582;43.004;-75.010;2023-02-25T04:56:30;1;0;
77481;PMS5003;66582;43.004;-75.010;2023-02-25T04:58:55;0;0;
77481;PMS5003;66582;43.004;-75.010;2023-02-25T05:01:20;0;0;
77481;PMS5003;66582;43.004;-75.010;2023-02-25T05:03:45;0;0;
77481;PMS5003;66582;43.004;-75.010;2023-02-25T05:06:10;0;0;
77481;PMS5003;66582;43.004;-75.010;2023-02-25T05:08:36;0;0;
77481;PMS5003;66582;43.004;-75.010;2023-02-25T05:11:01;1;1;
77481;PMS5003;66582;43.004;-75.010;2023-02-25T05:13:26;0;0;
77481;PMS5003;66582;43.004;-75.010;2023-02-25T05:15:51;0;0;
77481;PMS5003;66582;43.004;-75.010;2023-02-25T05:18:16;0;0;
77481;PMS5003;66582;43.004;-75.010;2023-02-25T05:20:42;2;1;
77481;PMS5003;66582;43.004;-75.010;2023-02-25T05:23:07;0;0;
77481;PMS5003;66582;43.004;-75.010;2023-02-25T05:25:32;0;0;
77481;PMS5003;66582;43.004;-75.010;2023-02-25T05:27:57;1;0;
77481;PMS5003;66582;43.004;-75.010;2023-02-25T05:30:22;1;1;
77481;PMS5003;66582;43.004;-75.010;2023-02-25T05:32:48;0;0;
77481;PMS5003;66582;43.004;-75.010;2023-02-25T05:35:13;1;1;
77481;PMS5003;66582;43.004;-75.010;2023-02-25T05:37:38;1;0;
77481;PMS5003;66582;43.004;-75.010;2023-02-25T05:40:04;0;0;
77481;PMS5003;66582;43.004;-75.010;2023-02-25T05:42:28;0;0;
77481;PMS5003;66582;43.004;-75.010;2023-02-25T05:44:54;0;0;
77481;PMS5003;66582;43.004;-75.010;2023-02-25T05:47:19;0;0;
77481;PMS5003;66582;43.004;-75.010;2023-02-25T05:49:44;0;0;
77481;PMS5003;66582;43.004;-75.010;2023-02-25T05:52:10;0;0;
77481;PMS5003;66582;43.004;-75.010;2023-02-25T05:54:34;0;0;
77481;PMS5003;66582;43.004;-75.010;2023-02-25T05:57:00;0;0;
77481;PMS5003;66582;43.004;-75.010;2023-02-25T05:59:26;0;0;
77481;PMS5003;66582;43.004;-75.010;2023-02-25T06:01:50;0;0;
77481;PMS5003;66582;43.004;-75.010;2023-02-25T06:04:15;1;1;
77481;PMS5003;66582;43.004;-75.010;2023-02-25T06:06:41;0;0;
77481;PMS5003;66582;43.004;-75.010;2023-02-25T06:09:06;0;0;
77481;PMS5003;66582;43.004;-75.010;2023-02-25T06:11:31;0;0;
77481;PMS5003;66582;43.004;-75.010;2023-02-25T06:13:57;0;0;
77481;PMS5003;66582;43.004;-75.010;2023-02-25T06:16:22;0;0;
77481;PMS5003;66582;43.004;-75.010;2023-02-25T06:18:47;0;0;
77481;PMS5003;66582;43.004;-75.010;2023-02-25T06:21:12;0;0;
77481;PMS5003;66582;43.004;-75.010;2023-02-25T06:23:38;0;0;
77481;PMS5003;66582;43.004;-75.010;2023-02-25T06:26:03;0;0;
77481;PMS5003;66582;43.004;-75.010;2023-02-25T06:28:28;0;0;
77481;PMS5003;66582;43.004;-75.010;2023-02-25T06:30:53;0;0;
77481;PMS5003;66582;43.004;-75.010;2023-02-25T06:33:18;0;0;
77481;PMS5003;66582;43.004;-75.010;2023-02-25T06:35:43;0;0;
77481;PMS5003;66582;43.004;-75.010;2023-02-25T06:38:09;0;0;
77481;PMS5003;66582;43.004;-75.010;2023-02-25T06:40:34;0;0;
77481;PMS5003;66582;43.004;-75.010;2023-02-25T06:42:59;0;0;
77481;PMS5003;66582;43.004;-75.010;2023-02-25T06:45:24;0;0;
77481;PMS5003;66582;43.004;-75.010;2023-02-25T06:47:49;0;0;
77481;PMS5003;66582;43.004;-75.010;2023-02-25T06:50:15;0;0;
77481;PMS5003;66582;43.004;-75.010;2023-02-25T06:52:40;0;0;
77481;PMS5003;66582;43.004;-75.010;2023-02-25T06:55:05;0;0;
77481;PMS5003;66582;43.004;-75.010;2023-02-25T06:57:30;0;0;
77481;PMS5003;66582;43.004;-75.010;2023-02-25T06:59:56;0;0;
77481;PMS5003;66582;43.004;-75.010;2023-02-25T07:02:21;0;0;
77481;PMS5003;66582;43.004;-75.010;2023-02-25T07:04:46;0;0;
77481;PMS5003;66582;43.004;-75.010;2023-02-25T07:07:11;0;0;
77481;PMS5003;66582;43.004;-75.010;2023-02-25T07:09:36;1;1;
77481;PMS5003;66582;43.004;-75.010;2023-02-25T07:12:02;0;0;
77481;PMS5003;66582;43.004;-75.010;2023-02-25T07:14:27;0;0;
77481;PMS5003;66582;43.004;-75.010;2023-02-25T07:16:52;0;0;
77481;PMS5003;66582;43.004;-75.010;2023-02-25T07:19:18;1;1;
77481;PMS5003;66582;43.004;-75.010;2023-02-25T07:21:43;0;0;
77481;PMS5003;66582;43.004;-75.010;2023-02-25T07:24:08;1;1;
77481;PMS5003;66582;43.004;-75.010;2023-02-25T07:26:33;0;0;
77481;PMS5003;66582;43.004;-75.010;2023-02-25T07:28:58;0;0;
77481;PMS5003;66582;43.004;-75.010;2023-02-25T07:31:24;0;0;
77481;PMS5003;66582;43.004;-75.010;2023-02-25T07:33:49;1;0;
77481;PMS5003;66582;43.004;-75.010;2023-02-25T07:36:14;0;0;
77481;PMS5003;66582;43.004;-75.010;2023-02-25T07:38:39;0;0;
77481;PMS5003;66582;43.004;-75.010;2023-02-25T07:41:05;1;1;
77481;PMS5003;66582;43.004;-75.010;2023-02-25T07:43:29;0;0;
77481;PMS5003;66582;43.004;-75.010;2023-02-25T07:45:55;0;0;
77481;PMS5003;66582;43.004;-75.010;2023-02-25T07:48:20;0;0;
77481;PMS5003;66582;43.004;-75.010;2023-02-25T07:50:45;1;0;
77481;PMS5003;66582;43.004;-75.010;2023-02-25T07:53:10;0;0;
77481;PMS5003;66582;43.004;-75.010;2023-02-25T07:55:36;0;0;
77481;PMS5003;66582;43.004;-75.010;2023-02-25T07:58:01;0;0;
77481;PMS5003;66582;43.004;-75.010;2023-02-25T08:00:26;0;0;
77481;PMS5003;66582;43.004;-75.010;2023-02-25T08:02:51;0;0;
77481;PMS5003;66582;43.004;-75.010;2023-02-25T08:05:17;0;0;
77481;PMS5003;66582;43.004;-75.010;2023-02-25T08:07:42;0;0;
77481;PMS5003;66582;43.004;-75.010;2023-02-25T08:10:08;1;1;
77481;PMS5003;66582;43.004;-75.010;2023-02-25T08:12:32;0;0;
77481;PMS5003;66582;43.004;-75.010;2023-02-25T08:14:57;0;0;
77481;PMS5003;66582;43.004;-75.010;2023-02-25T08:17:23;1;1;
77481;PMS5003;66582;43.004;-75.010;2023-02-25T08:19:48;0;0;
77481;PMS5003;66582;43.004;-75.010;2023-02-25T08:22:13;0;0;
77481;PMS5003;66582;43.004;-75.010;2023-02-25T08:24:38;0;0;
77481;PMS5003;66582;43.004;-75.010;2023-02-25T08:27:04;0;0;
77481;PMS5003;66582;43.004;-75.010;2023-02-25T08:29:29;1;1;
77481;PMS5003;66582;43.004;-75.010;2023-02-25T08:31:54;0;0;
77481;PMS5003;66582;43.004;-75.010;2023-02-25T08:34:19;0;0;
77481;PMS5003;66582;43.004;-75.010;2023-02-25T08:36:44;0;0;
77481;PMS5003;66582;43.004;-75.010;2023-02-25T08:39:10;1;1;
77481;PMS5003;66582;43.004;-75.010;2023-02-25T08:41:35;1;1;
77481;PMS5003;66582;43.004;-75.010;2023-02-25T08:44:00;0;0;
77481;PMS5003;66582;43.004;-75.010;2023-02-25T08:46:26;0;0;
77481;PMS5003;66582;43.004;-75.010;2023-02-25T08:48:51;0;0;
77481;PMS5003;66582;43.004;-75.010;2023-02-25T08:51:16;7;4;
77481;PMS5003;66582;43.004;-75.010;2023-02-25T08:53:41;4;4;
77481;PMS5003;66582;43.004;-75.010;2023-02-25T08:56:08;2;2;
77481;PMS5003;66582;43.004;-75.010;2023-02-25T08:58:32;2;2;
77481;PMS5003;66582;43.004;-75.010;2023-02-25T09:00:57;2;1;
77481;PMS5003;66582;43.004;-75.010;2023-02-25T09:03:22;4;1;
77481;PMS5003;66582;43.004;-75.010;2023-02-25T09:05:49;5;5;
77481;PMS5003;66582;43.004;-75.010;2023-02-25T09:08:12;7;7;
77481;PMS5003;66582;43.004;-75.010;2023-02-25T09:10:38;7;5;
77481;PMS5003;66582;43.004;-75.010;2023-02-25T09:13:03;5;4;
77481;PMS5003;66582;43.004;-75.010;2023-02-25T09:15:29;2;2;
77481;PMS5003;66582;43.004;-75.010;2023-02-25T09:17:54;2;1;
77481;PMS5003;66582;43.004;-75.010;2023-02-25T09:20:19;2;2;
77481;PMS5003;66582;43.004;-75.010;2023-02-25T09:22:44;0;0;
77481;PMS5003;66582;43.004;-75.010;2023-02-25T09:25:10;0;0;
77481;PMS5003;66582;43.004;-75.010;2023-02-25T09:27:35;0;0;
77481;PMS5003;66582;43.004;-75.010;2023-02-25T09:30:00;0;0;
77481;PMS5003;66582;43.004;-75.010;2023-02-25T09:32:25;1;1;
77481;PMS5003;66582;43.004;-75.010;2023-02-25T09:34:51;1;1;
77481;PMS5003;66582;43.004;-75.010;2023-02-25T09:37:16;0;0;
77481;PMS5003;66582;43.004;-75.010;2023-02-25T09:39:41;1;1;
77481;PMS5003;66582;43.004;-75.010;2023-02-25T09:42:07;1;1;
77481;PMS5003;66582;43.004;-75.010;2023-02-25T09:44:33;1;1;
77481;PMS5003;66582;43.004;-75.010;2023-02-25T09:47:00;1;1;
77481;PMS5003;66582;43.004;-75.010;2023-02-25T09:49:24;2;2;
77481;PMS5003;66582;43.004;-75.010;2023-02-25T09:51:49;1;1;
77481;PMS5003;66582;43.004;-75.010;2023-02-25T09:54:15;2;2;
77481;PMS5003;66582;43.004;-75.010;2023-02-25T09:56:38;1;1;
77481;PMS5003;66582;43.004;-75.010;2023-02-25T09:59:03;1;1;
77481;PMS5003;66582;43.004;-75.010;2023-02-25T10:01:29;4;4;
77481;PMS5003;66582;43.004;-75.010;2023-02-25T10:03:55;5;5;
77481;PMS5003;66582;43.004;-75.010;2023-02-25T10:06:20;2;2;
77481;PMS5003;66582;43.004;-75.010;2023-02-25T10:08:46;2;1;
77481;PMS5003;66582;43.004;-75.010;2023-02-25T10:11:10;4;2;
77481;PMS5003;66582;43.004;-75.010;2023-02-25T10:13:38;4;4;
77481;PMS5003;66582;43.004;-75.010;2023-02-25T10:16:02;1;1;
77481;PMS5003;66582;43.004;-75.010;2023-02-25T10:18:30;1;1;
77481;PMS5003;66582;43.004;-75.010;2023-02-25T10:20:51;0;0;
77481;PMS5003;66582;43.004;-75.010;2023-02-25T10:23:18;1;1;
77481;PMS5003;66582;43.004;-75.010;2023-02-25T10:25:41;1;1;
77481;PMS5003;66582;43.004;-75.010;2023-02-25T10:28:09;0;0;
77481;PMS5003;66582;43.004;-75.010;2023-02-25T10:30:33;2;2;
77481;PMS5003;66582;43.004;-75.010;2023-02-25T10:32:56;4;2;
77481;PMS5003;66582;43.004;-75.010;2023-02-25T10:35:23;2;1;
77481;PMS5003;66582;43.004;-75.010;2023-02-25T10:37:47;0;0;
77481;PMS5003;66582;43.004;-75.010;2023-02-25T10:40:14;0;0;
77481;PMS5003;66582;43.004;-75.010;2023-02-25T10:42:37;0;0;
77481;PMS5003;66582;43.004;-75.010;2023-02-25T10:45:05;1;1;
77481;PMS5003;66582;43.004;-75.010;2023-02-25T10:47:30;1;0;
77481;PMS5003;66582;43.004;-75.010;2023-02-25T10:52:19;0;0;
77481;PMS5003;66582;43.004;-75.010;2023-02-25T10:54:45;1;0;
77481;PMS5003;66582;43.004;-75.010;2023-02-25T10:57:11;1;1;
77481;PMS5003;66582;43.004;-75.010;2023-02-25T10:59:36;1;1;
77481;PMS5003;66582;43.004;-75.010;2023-02-25T11:02:00;1;1;
77481;PMS5003;66582;43.004;-75.010;2023-02-25T11:04:27;1;1;
77481;PMS5003;66582;43.004;-75.010;2023-02-25T11:06:50;1;1;
77481;PMS5003;66582;43.004;-75.010;2023-02-25T11:11:41;5;5;
77481;PMS5003;66582;43.004;-75.010;2023-02-25T11:14:14;4;4;
77481;PMS5003;66582;43.004;-75.010;2023-02-25T11:16:32;5;4;
77481;PMS5003;66582;43.004;-75.010;2023-02-25T11:18:57;2;2;
77481;PMS5003;66582;43.004;-75.010;2023-02-25T11:23:47;1;1;
77481;PMS5003;66582;43.004;-75.010;2023-02-25T11:26:13;2;1;
77481;PMS5003;66582;43.004;-75.010;2023-02-25T11:28:38;2;2;
77481;PMS5003;66582;43.004;-75.010;2023-02-25T11:31:05;2;2;
77481;PMS5003;66582;43.004;-75.010;2023-02-25T11:33:29;7;5;
77481;PMS5003;66582;43.004;-75.010;2023-02-25T11:35:54;5;4;
77481;PMS5003;66582;43.004;-75.010;2023-02-25T11:38:22;2;2;
77481;PMS5003;66582;43.004;-75.010;2023-02-25T11:40:44;1;1;
77481;PMS5003;66582;43.004;-75.010;2023-02-25T11:43:15;2;1;
77481;PMS5003;66582;43.004;-75.010;2023-02-25T11:45:45;1;1;
77481;PMS5003;66582;43.004;-75.010;2023-02-25T11:47:59;1;0;
77481;PMS5003;66582;43.004;-75.010;2023-02-25T11:50:25;1;1;
77481;PMS5003;66582;43.004;-75.010;2023-02-25T11:52:51;2;1;
77481;PMS5003;66582;43.004;-75.010;2023-02-25T11:55:17;1;1;
77481;PMS5003;66582;43.004;-75.010;2023-02-25T11:57:42;2;2;
77481;PMS5003;66582;43.004;-75.010;2023-02-25T12:00:12;1;1;
77481;PMS5003;66582;43.004;-75.010;2023-02-25T12:02:35;5;4;
77481;PMS5003;66582;43.004;-75.010;2023-02-25T12:05:02;5;5;
77481;PMS5003;66582;43.004;-75.010;2023-02-25T12:09:57;1;1;
77481;PMS5003;66582;43.004;-75.010;2023-02-25T12:12:17;2;2;
77481;PMS5003;66582;43.004;-75.010;2023-02-25T12:19:33;0;0;
77481;PMS5003;66582;43.004;-75.010;2023-02-25T12:24:21;2;2;
77481;PMS5003;66582;43.004;-75.010;2023-02-25T12:29:12;2;2;
77481;PMS5003;66582;43.004;-75.010;2023-02-25T12:31:39;4;3;
77481;PMS5003;66582;43.004;-75.010;2023-02-25T12:34:08;3;3;
77481;PMS5003;66582;43.004;-75.010;2023-02-25T12:36:26;7;4;
77481;PMS5003;66582;43.004;-75.010;2023-02-25T12:38:55;3;1;
77481;PMS5003;66582;43.004;-75.010;2023-02-25T12:41:19;3;3;
77481;PMS5003;66582;43.004;-75.010;2023-02-25T12:43:42;2;2;
77481;PMS5003;66582;43.004;-75.010;2023-02-25T12:46:14;2;1;
77481;PMS5003;66582;43.004;-75.010;2023-02-25T12:48:35;2;2;
77481;PMS5003;66582;43.004;-75.010;2023-02-25T12:53:24;2;2;
77481;PMS5003;66582;43.004;-75.010;2023-02-25T12:55:56;1;1;
77481;PMS5003;66582;43.004;-75.010;2023-02-25T12:58:16;1;0;
77481;PMS5003;66582;43.004;-75.010;2023-02-25T13:03:06;1;1;
77481;PMS5003;66582;43.004;-75.010;2023-02-25T13:07:55;4;1;
77481;PMS5003;66582;43.004;-75.010;2023-02-25T13:12:46;4;2;
77481;PMS5003;66582;43.004;-75.010;2023-02-25T13:15:09;1;1;
77481;PMS5003;66582;43.004;-75.010;2023-02-25T13:20:13;1;1;
77481;PMS5003;66582;43.004;-75.010;2023-02-25T13:22:29;5;4;
77481;PMS5003;66582;43.004;-75.010;2023-02-25T13:24:51;5;5;
77481;PMS5003;66582;43.004;-75.010;2023-02-25T13:27:29;4;4;
77481;PMS5003;66582;43.004;-75.010;2023-02-25T13:32:11;4;4;
77481;PMS5003;66582;43.004;-75.010;2023-02-25T13:34:31;4;4;
77481;PMS5003;66582;43.004;-75.010;2023-02-25T13:36:59;5;2;
77481;PMS5003;66582;43.004;-75.010;2023-02-25T13:39:30;4;2;
77481;PMS5003;66582;43.004;-75.010;2023-02-25T13:41:49;1;1;
77481;PMS5003;66582;43.004;-75.010;2023-02-25T13:46:39;5;5;
77481;PMS5003;66582;43.004;-75.010;2023-02-25T13:49:03;1;1;
77481;PMS5003;66582;43.004;-75.010;2023-02-25T13:51:28;4;2;
77481;PMS5003;66582;43.004;-75.010;2023-02-25T13:54:04;4;4;
77481;PMS5003;66582;43.004;-75.010;2023-02-25T13:56:26;2;2;
77481;PMS5003;66582;43.004;-75.010;2023-02-25T13:58:47;5;2;
77481;PMS5003;66582;43.004;-75.010;2023-02-25T14:06:00;2;2;
77481;PMS5003;66582;43.004;-75.010;2023-02-25T14:10:51;4;2;
77481;PMS5003;66582;43.004;-75.010;2023-02-25T14:15:42;1;1;
77481;PMS5003;66582;43.004;-75.010;2023-02-25T14:18:08;2;2;
77481;PMS5003;66582;43.004;-75.010;2023-02-25T14:20:34;4;2;
77481;PMS5003;66582;43.004;-75.010;2023-02-25T14:22:54;2;1;
77481;PMS5003;66582;43.004;-75.010;2023-02-25T14:25:29;4;1;
77481;PMS5003;66582;43.004;-75.010;2023-02-25T14:27:46;4;2;
77481;PMS5003;66582;43.004;-75.010;2023-02-25T14:30:13;1;1;
77481;PMS5003;66582;43.004;-75.010;2023-02-25T14:32:39;2;2;
77481;PMS5003;66582;43.004;-75.010;2023-02-25T14:35:07;2;1;
77481;PMS5003;66582;43.004;-75.010;2023-02-25T14:37:29;6;2;
77481;PMS5003;66582;43.004;-75.010;2023-02-25T14:39:54;2;1;
77481;PMS5003;66582;43.004;-75.010;2023-02-25T14:42:21;2;1;
77481;PMS5003;66582;43.004;-75.010;2023-02-25T14:44:41;0;0;
77481;PMS5003;66582;43.004;-75.010;2023-02-25T14:47:08;1;1;
77481;PMS5003;66582;43.004;-75.010;2023-02-25T14:49:32;6;5;
77481;PMS5003;66582;43.004;-75.010;2023-02-25T14:52:02;5;2;
77481;PMS5003;66582;43.004;-75.010;2023-02-25T14:56:51;4;4;
77481;PMS5003;66582;43.004;-75.010;2023-02-25T14:59:17;7;5;
77481;PMS5003;66582;43.004;-75.010;2023-02-25T15:06:31;4;4;
77481;PMS5003;66582;43.004;-75.010;2023-02-25T15:08:57;2;2;
77481;PMS5003;66582;43.004;-75.010;2023-02-25T15:13:50;5;4;
77481;PMS5003;66582;43.004;-75.010;2023-02-25T15:21:00;2;2;
77481;PMS5003;66582;43.004;-75.010;2023-02-25T15:25:50;1;1;
77481;PMS5003;66582;43.004;-75.010;2023-02-25T15:38:02;1;1;
77481;PMS5003;66582;43.004;-75.010;2023-02-25T15:42:47;2;2;
77481;PMS5003;66582;43.004;-75.010;2023-02-25T15:47:38;2;2;
77481;PMS5003;66582;43.004;-75.010;2023-02-25T15:50:02;2;1;
77481;PMS5003;66582;43.004;-75.010;2023-02-25T15:54:52;2;2;
77481;PMS5003;66582;43.004;-75.010;2023-02-25T15:59:43;3;1;
77481;PMS5003;66582;43.004;-75.010;2023-02-25T16:04:39;5;3;
77481;PMS5003;66582;43.004;-75.010;2023-02-25T16:06:58;1;1;
77481;PMS5003;66582;43.004;-75.010;2023-02-25T16:09:24;5;2;
77481;PMS5003;66582;43.004;-75.010;2023-02-25T16:11:49;5;3;
77481;PMS5003;66582;43.004;-75.010;2023-02-25T16:14:14;1;1;
77481;PMS5003;66582;43.004;-75.010;2023-02-25T16:16:40;3;3;
77481;PMS5003;66582;43.004;-75.010;2023-02-25T16:19:04;3;3;
77481;PMS5003;66582;43.004;-75.010;2023-02-25T16:21:30;3;3;
77481;PMS5003;66582;43.004;-75.010;2023-02-25T16:23:54;1;1;
77481;PMS5003;66582;43.004;-75.010;2023-02-25T16:26:28;3;2;
77481;PMS5003;66582;43.004;-75.010;2023-02-25T16:28:46;3;2;
77481;PMS5003;66582;43.004;-75.010;2023-02-25T16:31:13;2;2;
77481;PMS5003;66582;43.004;-75.010;2023-02-25T16:33:37;3;2;
77481;PMS5003;66582;43.004;-75.010;2023-02-25T16:36:02;6;5;
77481;PMS5003;66582;43.004;-75.010;2023-02-25T16:38:26;2;2;
77481;PMS5003;66582;43.004;-75.010;2023-02-25T16:40:51;3;3;
77481;PMS5003;66582;43.004;-75.010;2023-02-25T16:43:16;3;3;
77481;PMS5003;66582;43.004;-75.010;2023-02-25T16:45:42;2;2;
77481;PMS5003;66582;43.004;-75.010;2023-02-25T16:48:16;3;2;
77481;PMS5003;66582;43.004;-75.010;2023-02-25T16:50:32;2;2;
77481;PMS5003;66582;43.004;-75.010;2023-02-25T16:52:57;3;3;
77481;PMS5003;66582;43.004;-75.010;2023-02-25T16:55:23;5;3;
77481;PMS5003;66582;43.004;-75.010;2023-02-25T17:00:13;6;5;
77481;PMS5003;66582;43.004;-75.010;2023-02-25T17:02:42;7;5;
77481;PMS5003;66582;43.004;-75.010;2023-02-25T17:05:03;2;2;
77481;PMS5003;66582;43.004;-75.010;2023-02-25T17:07:28;3;3;
77481;PMS5003;66582;43.004;-75.010;2023-02-25T17:09:54;5;5;
77481;PMS5003;66582;43.004;-75.010;2023-02-25T17:12:19;3;2;
77481;PMS5003;66582;43.004;-75.010;2023-02-25T17:14:44;2;2;
77481;PMS5003;66582;43.004;-75.010;2023-02-25T17:19:34;6;5;
77481;PMS5003;66582;43.004;-75.010;2023-02-25T17:21:59;2;2;
77481;PMS5003;66582;43.004;-75.010;2023-02-25T17:24:25;3;3;
77481;PMS5003;66582;43.004;-75.010;2023-02-25T17:26:50;5;3;
77481;PMS5003;66582;43.004;-75.010;2023-02-25T17:29:16;2;2;
77481;PMS5003;66582;43.004;-75.010;2023-02-25T17:31:42;3;3;
77481;PMS5003;66582;43.004;-75.010;2023-02-25T17:34:09;5;5;
77481;PMS5003;66582;43.004;-75.010;2023-02-25T17:36:31;1;1;